Airfield :
LOGIN :

Register | Disclaimer

   EN    FR    IT 

 










Legend :    VFR   Marginal VFR   IFR   Intensive IFR   Very Intensive IFR
Visi :
Ceiling :
>= 8 km
>= 3000ft
5 to 8 km
1000 to 3000 ft
1500m to 5 km
500 to 1000 ft
800 to 1500m
200 to 500 ft
< 800m
< 200 ft
Symbols :   Thunderstorms  Fog  Heavy snow  Heavy precipitations  Wind > 20 kt
SIGMETs :     Misc.  Thunderstorms  Icing  Turbulence  Mountain Waves  Volcanic Ashes






- Airport Elevation : 7 ft
- IATA code : VCE


LIPZ - Marco Polo Int. Venezia

CURRENT METAR :
  • 241220Z 23007KT 7000 SCT020 17/14 Q1015 NOSIG

EXPIRED METARs :
  • 241150Z 28004KT 7000 SCT020 17/13 Q1015 NOSIG
  • 241120Z 30006KT 280V360 7000 BKN018 16/13 Q1015 NOSIG
  • 241050Z 26007KT 7000 BKN017 16/13 Q1016 NOSIG
  • 241020Z 21006KT 5000 BR BKN015 15/14 Q1016 NOSIG
  • 240950Z 23006KT 5000 BR BKN013 16/14 Q1016 NOSIG

TAF TAF LIPZ
Valid from the 24 at 12:00 until the 25 at 18:00 UTC


241100Z 2412/2518 VRB05KT 6000 SCT020
PROB40
TEMPO 2412/2418 TSRA
BECMG 2418/2421 2000 BR BKN010
TEMPO 2500/2507 0400 FG BKN003
BECMG 2508/2510 4000 BR SCT020



MET'MAP, your aeronautical weather chart ! - Copyright ORBIFLY December 2007 - Disclaimer

ORBIFLY MET'MAP TEAM :

Programming & Development : Alexandra Zaïnal
Concept & original design : Baudouin d'Aumeries
Assistance for programming : Marc-Olivier Méhu
Technical & hardware support : Manuel Goepfert

Contact : metmap@orbifly.com




SOURCES & CREDITS :

   NOAA